Terminal Aerodrome Forecast
Issued by NWS Knoxville/Tri Cities, TN

Home | Current Version | Previous Version | Text Only | Print | Product List | Glossary On
Versions: 1 2 3 4 5 6 7 8 9 10 11 12 13 14 15 16 17
000
FTUS44 KMRX 271130
TAFTYS
TAF
KTYS 271130Z 2712/2812 22008KT 6SM -SHRA BR SCT025 BKN040
      TEMPO 2712/2714 3SM SHRA BKN025
     FM271500 23010KT P6SM -SHRA SCT020 BKN035
     FM271700 23012G20KT P6SM BKN040
     FM272000 25010KT P6SM BKN050
     FM280200 VRB04KT P6SM SCT050 SCT200=

USA.gov is the U.S. government's official web portal to all federal, state and local government web resources and services.